sensor_id;sensor_type;location;lat;lon;timestamp;P1;durP1;ratioP1;P2;durP2;ratioP2
25948;SDS011;13961;51.178;4.448;2023-09-19T00:01:57;12.55;;;2.40;;
25948;SDS011;13961;51.178;4.448;2023-09-19T00:04:23;12.13;;;2.30;;
25948;SDS011;13961;51.178;4.448;2023-09-19T00:06:54;14.75;;;2.60;;
25948;SDS011;13961;51.178;4.448;2023-09-19T00:09:19;10.75;;;2.25;;
25948;SDS011;13961;51.178;4.448;2023-09-19T00:11:45;10.95;;;2.33;;
25948;SDS011;13961;51.178;4.448;2023-09-19T00:14:12;10.95;;;3.00;;
25948;SDS011;13961;51.178;4.448;2023-09-19T00:16:39;10.57;;;2.08;;
25948;SDS011;13961;51.178;4.448;2023-09-19T00:19:06;12.02;;;2.30;;
25948;SDS011;13961;51.178;4.448;2023-09-19T00:21:32;14.57;;;2.30;;
25948;SDS011;13961;51.178;4.448;2023-09-19T00:23:58;12.73;;;2.67;;
25948;SDS011;13961;51.178;4.448;2023-09-19T00:26:23;9.30;;;1.63;;
25948;SDS011;13961;51.178;4.448;2023-09-19T00:28:52;10.60;;;2.03;;
25948;SDS011;13961;51.178;4.448;2023-09-19T00:31:17;8.40;;;2.13;;
25948;SDS011;13961;51.178;4.448;2023-09-19T00:33:43;11.45;;;2.97;;
25948;SDS011;13961;51.178;4.448;2023-09-19T00:36:09;11.40;;;1.65;;
25948;SDS011;13961;51.178;4.448;2023-09-19T00:38:34;14.88;;;2.78;;
25948;SDS011;13961;51.178;4.448;2023-09-19T00:41:00;15.65;;;2.00;;
25948;SDS011;13961;51.178;4.448;2023-09-19T00:43:26;12.90;;;2.38;;
25948;SDS011;13961;51.178;4.448;2023-09-19T00:45:53;10.10;;;1.75;;
25948;SDS011;13961;51.178;4.448;2023-09-19T00:48:20;9.82;;;2.20;;
25948;SDS011;13961;51.178;4.448;2023-09-19T00:50:47;9.05;;;2.03;;
25948;SDS011;13961;51.178;4.448;2023-09-19T00:53:15;7.63;;;1.70;;
25948;SDS011;13961;51.178;4.448;2023-09-19T00:55:44;10.40;;;1.58;;
25948;SDS011;13961;51.178;4.448;2023-09-19T00:58:11;7.40;;;2.08;;
25948;SDS011;13961;51.178;4.448;2023-09-19T01:00:37;6.28;;;1.58;;
25948;SDS011;13961;51.178;4.448;2023-09-19T01:03:03;8.75;;;1.63;;
25948;SDS011;13961;51.178;4.448;2023-09-19T01:05:35;8.55;;;1.95;;
25948;SDS011;13961;51.178;4.448;2023-09-19T01:08:01;13.40;;;2.47;;
25948;SDS011;13961;51.178;4.448;2023-09-19T01:10:27;8.35;;;1.50;;
25948;SDS011;13961;51.178;4.448;2023-09-19T01:13:03;9.63;;;2.15;;
25948;SDS011;13961;51.178;4.448;2023-09-19T01:18:55;10.68;;;1.98;;
25948;SDS011;13961;51.178;4.448;2023-09-19T01:24:17;10.38;;;2.35;;
25948;SDS011;13961;51.178;4.448;2023-09-19T01:29:46;10.70;;;2.15;;
25948;SDS011;13961;51.178;4.448;2023-09-19T01:32:17;7.60;;;1.90;;
25948;SDS011;13961;51.178;4.448;2023-09-19T01:37:18;10.10;;;2.38;;
25948;SDS011;13961;51.178;4.448;2023-09-19T01:39:46;10.05;;;2.67;;
25948;SDS011;13961;51.178;4.448;2023-09-19T01:44:57;13.90;;;2.17;;
25948;SDS011;13961;51.178;4.448;2023-09-19T01:47:33;15.57;;;2.80;;
25948;SDS011;13961;51.178;4.448;2023-09-19T01:50:13;7.13;;;2.08;;
25948;SDS011;13961;51.178;4.448;2023-09-19T01:52:57;11.38;;;2.08;;
25948;SDS011;13961;51.178;4.448;2023-09-19T01:55:29;12.82;;;2.38;;
25948;SDS011;13961;51.178;4.448;2023-09-19T01:58:01;6.63;;;1.92;;
25948;SDS011;13961;51.178;4.448;2023-09-19T02:00:32;10.63;;;2.13;;
25948;SDS011;13961;51.178;4.448;2023-09-19T02:03:01;12.15;;;1.98;;
25948;SDS011;13961;51.178;4.448;2023-09-19T02:05:28;7.18;;;2.00;;
25948;SDS011;13961;51.178;4.448;2023-09-19T02:07:55;15.45;;;2.22;;
25948;SDS011;13961;51.178;4.448;2023-09-19T02:10:21;10.73;;;2.20;;
25948;SDS011;13961;51.178;4.448;2023-09-19T02:12:48;8.32;;;2.22;;
25948;SDS011;13961;51.178;4.448;2023-09-19T02:15:15;9.30;;;2.08;;
25948;SDS011;13961;51.178;4.448;2023-09-19T02:17:41;10.50;;;2.00;;
25948;SDS011;13961;51.178;4.448;2023-09-19T02:20:11;11.35;;;1.60;;
25948;SDS011;13961;51.178;4.448;2023-09-19T02:22:40;10.30;;;2.33;;
25948;SDS011;13961;51.178;4.448;2023-09-19T02:25:06;17.30;;;2.30;;
25948;SDS011;13961;51.178;4.448;2023-09-19T02:27:33;11.55;;;2.15;;
25948;SDS011;13961;51.178;4.448;2023-09-19T02:29:59;10.18;;;2.15;;
25948;SDS011;13961;51.178;4.448;2023-09-19T02:32:28;8.35;;;2.25;;
25948;SDS011;13961;51.178;4.448;2023-09-19T02:34:56;8.57;;;1.92;;
25948;SDS011;13961;51.178;4.448;2023-09-19T02:37:24;11.85;;;1.83;;
25948;SDS011;13961;51.178;4.448;2023-09-19T02:39:50;12.43;;;2.10;;
25948;SDS011;13961;51.178;4.448;2023-09-19T02:42:15;10.32;;;2.75;;
25948;SDS011;13961;51.178;4.448;2023-09-19T02:44:41;12.40;;;2.20;;
25948;SDS011;13961;51.178;4.448;2023-09-19T02:47:06;7.50;;;2.10;;
25948;SDS011;13961;51.178;4.448;2023-09-19T02:49:32;18.50;;;3.00;;
25948;SDS011;13961;51.178;4.448;2023-09-19T02:51:58;12.57;;;2.20;;
25948;SDS011;13961;51.178;4.448;2023-09-19T02:54:25;14.82;;;3.58;;
25948;SDS011;13961;51.178;4.448;2023-09-19T02:56:51;11.13;;;2.20;;
25948;SDS011;13961;51.178;4.448;2023-09-19T02:59:18;13.20;;;2.33;;
25948;SDS011;13961;51.178;4.448;2023-09-19T03:01:44;13.30;;;2.65;;
25948;SDS011;13961;51.178;4.448;2023-09-19T03:04:13;9.40;;;2.30;;
25948;SDS011;13961;51.178;4.448;2023-09-19T03:06:44;11.15;;;2.30;;
25948;SDS011;13961;51.178;4.448;2023-09-19T03:09:10;8.77;;;1.95;;
25948;SDS011;13961;51.178;4.448;2023-09-19T03:11:36;10.00;;;1.98;;
25948;SDS011;13961;51.178;4.448;2023-09-19T03:14:02;11.38;;;2.05;;
25948;SDS011;13961;51.178;4.448;2023-09-19T03:16:29;12.25;;;2.38;;
25948;SDS011;13961;51.178;4.448;2023-09-19T03:18:54;10.95;;;2.10;;
25948;SDS011;13961;51.178;4.448;2023-09-19T03:21:20;16.92;;;2.28;;
25948;SDS011;13961;51.178;4.448;2023-09-19T03:23:46;13.80;;;2.25;;
25948;SDS011;13961;51.178;4.448;2023-09-19T03:26:12;11.20;;;2.05;;
25948;SDS011;13961;51.178;4.448;2023-09-19T03:28:39;12.45;;;1.98;;
25948;SDS011;13961;51.178;4.448;2023-09-19T03:31:06;12.50;;;2.10;;
25948;SDS011;13961;51.178;4.448;2023-09-19T03:33:32;10.57;;;1.75;;
25948;SDS011;13961;51.178;4.448;2023-09-19T03:35:59;12.18;;;2.72;;
25948;SDS011;13961;51.178;4.448;2023-09-19T03:38:26;12.45;;;2.20;;
25948;SDS011;13961;51.178;4.448;2023-09-19T03:40:53;10.13;;;1.88;;
25948;SDS011;13961;51.178;4.448;2023-09-19T03:43:19;12.77;;;2.17;;
25948;SDS011;13961;51.178;4.448;2023-09-19T03:45:45;9.65;;;2.28;;
25948;SDS011;13961;51.178;4.448;2023-09-19T03:48:11;11.35;;;2.10;;
25948;SDS011;13961;51.178;4.448;2023-09-19T03:50:38;12.10;;;2.83;;
25948;SDS011;13961;51.178;4.448;2023-09-19T03:53:03;9.13;;;2.38;;
25948;SDS011;13961;51.178;4.448;2023-09-19T03:55:31;7.38;;;2.50;;
25948;SDS011;13961;51.178;4.448;2023-09-19T03:57:57;13.32;;;2.55;;
25948;SDS011;13961;51.178;4.448;2023-09-19T04:00:23;14.10;;;2.17;;
25948;SDS011;13961;51.178;4.448;2023-09-19T04:02:51;10.65;;;2.35;;
25948;SDS011;13961;51.178;4.448;2023-09-19T04:05:17;13.23;;;2.67;;
25948;SDS011;13961;51.178;4.448;2023-09-19T04:07:43;15.13;;;2.72;;
25948;SDS011;13961;51.178;4.448;2023-09-19T04:10:10;11.23;;;2.63;;
25948;SDS011;13961;51.178;4.448;2023-09-19T04:12:36;6.35;;;1.77;;
25948;SDS011;13961;51.178;4.448;2023-09-19T04:15:04;11.27;;;2.50;;
25948;SDS011;13961;51.178;4.448;2023-09-19T04:17:30;10.10;;;2.10;;
25948;SDS011;13961;51.178;4.448;2023-09-19T04:19:58;12.13;;;2.20;;
25948;SDS011;13961;51.178;4.448;2023-09-19T04:22:24;8.60;;;2.05;;
25948;SDS011;13961;51.178;4.448;2023-09-19T04:24:50;11.20;;;1.98;;
25948;SDS011;13961;51.178;4.448;2023-09-19T04:27:15;12.45;;;2.60;;
25948;SDS011;13961;51.178;4.448;2023-09-19T04:29:41;12.75;;;2.10;;
25948;SDS011;13961;51.178;4.448;2023-09-19T04:32:07;11.23;;;2.60;;
25948;SDS011;13961;51.178;4.448;2023-09-19T04:34:34;10.35;;;2.33;;
25948;SDS011;13961;51.178;4.448;2023-09-19T04:37:00;10.38;;;2.08;;
25948;SDS011;13961;51.178;4.448;2023-09-19T04:39:27;17.17;;;2.85;;
25948;SDS011;13961;51.178;4.448;2023-09-19T04:41:53;11.23;;;1.98;;
25948;SDS011;13961;51.178;4.448;2023-09-19T04:44:19;14.50;;;2.60;;
25948;SDS011;13961;51.178;4.448;2023-09-19T04:46:46;15.32;;;2.55;;
25948;SDS011;13961;51.178;4.448;2023-09-19T04:49:12;9.60;;;2.10;;
25948;SDS011;13961;51.178;4.448;2023-09-19T04:51:38;10.88;;;2.17;;
25948;SDS011;13961;51.178;4.448;2023-09-19T04:54:04;11.60;;;1.77;;
25948;SDS011;13961;51.178;4.448;2023-09-19T04:56:30;13.45;;;2.35;;
25948;SDS011;13961;51.178;4.448;2023-09-19T04:58:57;12.60;;;2.83;;
25948;SDS011;13961;51.178;4.448;2023-09-19T05:01:26;12.10;;;2.55;;
25948;SDS011;13961;51.178;4.448;2023-09-19T05:03:53;10.48;;;2.13;;
25948;SDS011;13961;51.178;4.448;2023-09-19T05:06:22;14.98;;;2.78;;
25948;SDS011;13961;51.178;4.448;2023-09-19T05:08:48;13.05;;;2.50;;
25948;SDS011;13961;51.178;4.448;2023-09-19T05:11:21;13.82;;;2.63;;
25948;SDS011;13961;51.178;4.448;2023-09-19T05:13:47;14.25;;;2.67;;
25948;SDS011;13961;51.178;4.448;2023-09-19T05:16:17;13.77;;;2.08;;
25948;SDS011;13961;51.178;4.448;2023-09-19T05:18:43;14.48;;;2.35;;
25948;SDS011;13961;51.178;4.448;2023-09-19T05:21:08;9.88;;;1.88;;
25948;SDS011;13961;51.178;4.448;2023-09-19T05:23:34;13.35;;;2.75;;
25948;SDS011;13961;51.178;4.448;2023-09-19T05:25:59;9.70;;;2.10;;
25948;SDS011;13961;51.178;4.448;2023-09-19T05:28:25;9.60;;;2.10;;
25948;SDS011;13961;51.178;4.448;2023-09-19T05:30:52;10.57;;;2.30;;
25948;SDS011;13961;51.178;4.448;2023-09-19T05:33:18;12.93;;;2.65;;
25948;SDS011;13961;51.178;4.448;2023-09-19T05:35:45;13.07;;;2.35;;
25948;SDS011;13961;51.178;4.448;2023-09-19T05:38:12;9.75;;;2.05;;
25948;SDS011;13961;51.178;4.448;2023-09-19T05:40:39;17.88;;;2.63;;
25948;SDS011;13961;51.178;4.448;2023-09-19T05:43:10;17.08;;;2.60;;
25948;SDS011;13961;51.178;4.448;2023-09-19T05:45:35;14.68;;;2.35;;
25948;SDS011;13961;51.178;4.448;2023-09-19T05:48:12;17.58;;;2.28;;
25948;SDS011;13961;51.178;4.448;2023-09-19T05:50:41;11.18;;;2.15;;
25948;SDS011;13961;51.178;4.448;2023-09-19T05:53:07;16.50;;;2.45;;
25948;SDS011;13961;51.178;4.448;2023-09-19T05:55:35;13.95;;;2.30;;
25948;SDS011;13961;51.178;4.448;2023-09-19T05:58:00;11.73;;;2.22;;
25948;SDS011;13961;51.178;4.448;2023-09-19T06:00:29;13.25;;;2.20;;
25948;SDS011;13961;51.178;4.448;2023-09-19T06:02:57;12.07;;;2.35;;
25948;SDS011;13961;51.178;4.448;2023-09-19T06:05:24;16.02;;;3.00;;
25948;SDS011;13961;51.178;4.448;2023-09-19T06:07:52;16.27;;;2.00;;
25948;SDS011;13961;51.178;4.448;2023-09-19T06:10:18;9.77;;;2.30;;
25948;SDS011;13961;51.178;4.448;2023-09-19T06:12:46;12.73;;;2.00;;
25948;SDS011;13961;51.178;4.448;2023-09-19T06:15:16;14.55;;;2.30;;
25948;SDS011;13961;51.178;4.448;2023-09-19T06:17:47;14.13;;;2.13;;
25948;SDS011;13961;51.178;4.448;2023-09-19T06:20:13;9.27;;;2.33;;
25948;SDS011;13961;51.178;4.448;2023-09-19T06:22:42;11.70;;;2.10;;
25948;SDS011;13961;51.178;4.448;2023-09-19T06:25:10;12.70;;;2.00;;
25948;SDS011;13961;51.178;4.448;2023-09-19T06:27:39;10.40;;;2.33;;
25948;SDS011;13961;51.178;4.448;2023-09-19T06:30:07;11.98;;;2.00;;
25948;SDS011;13961;51.178;4.448;2023-09-19T06:32:34;14.18;;;2.17;;
25948;SDS011;13961;51.178;4.448;2023-09-19T06:35:00;12.30;;;2.08;;
25948;SDS011;13961;51.178;4.448;2023-09-19T06:37:29;15.55;;;2.30;;
25948;SDS011;13961;51.178;4.448;2023-09-19T06:39:55;9.85;;;2.03;;
25948;SDS011;13961;51.178;4.448;2023-09-19T06:42:21;7.22;;;1.65;;
25948;SDS011;13961;51.178;4.448;2023-09-19T06:44:48;12.75;;;2.83;;
25948;SDS011;13961;51.178;4.448;2023-09-19T06:47:14;12.85;;;2.45;;
25948;SDS011;13961;51.178;4.448;2023-09-19T06:49:41;10.07;;;2.45;;
25948;SDS011;13961;51.178;4.448;2023-09-19T06:52:09;12.05;;;2.38;;
25948;SDS011;13961;51.178;4.448;2023-09-19T06:54:34;12.13;;;2.53;;
25948;SDS011;13961;51.178;4.448;2023-09-19T06:57:01;15.15;;;2.03;;
25948;SDS011;13961;51.178;4.448;2023-09-19T06:59:26;10.85;;;2.20;;
25948;SDS011;13961;51.178;4.448;2023-09-19T07:01:53;12.45;;;2.28;;
25948;SDS011;13961;51.178;4.448;2023-09-19T07:04:19;19.10;;;2.30;;
25948;SDS011;13961;51.178;4.448;2023-09-19T07:06:44;11.05;;;1.90;;
25948;SDS011;13961;51.178;4.448;2023-09-19T07:09:15;8.35;;;1.88;;
25948;SDS011;13961;51.178;4.448;2023-09-19T07:11:47;13.10;;;2.72;;
25948;SDS011;13961;51.178;4.448;2023-09-19T07:14:13;10.93;;;1.88;;
25948;SDS011;13961;51.178;4.448;2023-09-19T07:16:38;10.25;;;1.67;;
25948;SDS011;13961;51.178;4.448;2023-09-19T07:19:07;11.00;;;2.15;;
25948;SDS011;13961;51.178;4.448;2023-09-19T07:21:33;10.65;;;2.30;;
25948;SDS011;13961;51.178;4.448;2023-09-19T07:24:00;12.55;;;2.28;;
25948;SDS011;13961;51.178;4.448;2023-09-19T07:26:28;11.02;;;2.20;;
25948;SDS011;13961;51.178;4.448;2023-09-19T07:28:54;11.15;;;2.00;;
25948;SDS011;13961;51.178;4.448;2023-09-19T07:31:20;6.78;;;2.00;;
25948;SDS011;13961;51.178;4.448;2023-09-19T07:33:47;15.57;;;2.92;;
25948;SDS011;13961;51.178;4.448;2023-09-19T07:36:14;12.88;;;1.95;;
25948;SDS011;13961;51.178;4.448;2023-09-19T07:38:41;8.88;;;2.20;;
25948;SDS011;13961;51.178;4.448;2023-09-19T07:41:07;13.32;;;2.35;;
25948;SDS011;13961;51.178;4.448;2023-09-19T07:43:36;9.98;;;1.70;;
25948;SDS011;13961;51.178;4.448;2023-09-19T07:46:06;12.60;;;2.30;;
25948;SDS011;13961;51.178;4.448;2023-09-19T07:48:36;15.07;;;2.40;;
25948;SDS011;13961;51.178;4.448;2023-09-19T07:51:03;9.02;;;2.40;;
25948;SDS011;13961;51.178;4.448;2023-09-19T07:53:31;13.10;;;2.70;;
25948;SDS011;13961;51.178;4.448;2023-09-19T07:56:06;13.90;;;2.30;;
25948;SDS011;13961;51.178;4.448;2023-09-19T07:58:33;9.07;;;1.77;;
25948;SDS011;13961;51.178;4.448;2023-09-19T08:01:04;11.23;;;2.13;;
25948;SDS011;13961;51.178;4.448;2023-09-19T08:03:31;10.65;;;2.08;;
25948;SDS011;13961;51.178;4.448;2023-09-19T08:05:57;13.57;;;2.30;;
25948;SDS011;13961;51.178;4.448;2023-09-19T08:08:23;7.28;;;1.75;;
25948;SDS011;13961;51.178;4.448;2023-09-19T08:10:52;10.45;;;2.13;;
25948;SDS011;13961;51.178;4.448;2023-09-19T08:13:21;12.00;;;2.70;;
25948;SDS011;13961;51.178;4.448;2023-09-19T08:15:50;11.38;;;2.53;;
25948;SDS011;13961;51.178;4.448;2023-09-19T08:18:16;10.25;;;2.38;;
25948;SDS011;13961;51.178;4.448;2023-09-19T08:20:42;11.63;;;2.20;;
25948;SDS011;13961;51.178;4.448;2023-09-19T08:23:11;7.72;;;2.20;;
25948;SDS011;13961;51.178;4.448;2023-09-19T08:25:36;12.38;;;2.30;;
25948;SDS011;13961;51.178;4.448;2023-09-19T08:28:04;12.40;;;2.67;;
25948;SDS011;13961;51.178;4.448;2023-09-19T08:30:33;11.43;;;2.25;;
25948;SDS011;13961;51.178;4.448;2023-09-19T08:33:00;11.55;;;2.45;;
25948;SDS011;13961;51.178;4.448;2023-09-19T08:35:26;9.50;;;2.20;;
25948;SDS011;13961;51.178;4.448;2023-09-19T08:37:52;13.18;;;2.40;;
25948;SDS011;13961;51.178;4.448;2023-09-19T08:40:18;10.07;;;2.65;;
25948;SDS011;13961;51.178;4.448;2023-09-19T08:42:53;10.43;;;2.33;;
25948;SDS011;13961;51.178;4.448;2023-09-19T08:45:20;10.05;;;2.13;;
25948;SDS011;13961;51.178;4.448;2023-09-19T08:50:43;10.68;;;2.17;;
25948;SDS011;13961;51.178;4.448;2023-09-19T08:53:15;11.13;;;2.47;;
25948;SDS011;13961;51.178;4.448;2023-09-19T08:55:47;9.13;;;1.90;;
25948;SDS011;13961;51.178;4.448;2023-09-19T08:58:19;7.15;;;1.73;;
25948;SDS011;13961;51.178;4.448;2023-09-19T09:00:48;8.68;;;2.15;;
25948;SDS011;13961;51.178;4.448;2023-09-19T09:03:15;13.18;;;2.10;;
25948;SDS011;13961;51.178;4.448;2023-09-19T09:05:45;10.43;;;1.75;;
25948;SDS011;13961;51.178;4.448;2023-09-19T09:08:12;8.80;;;2.00;;
25948;SDS011;13961;51.178;4.448;2023-09-19T09:10:39;11.35;;;2.30;;
25948;SDS011;13961;51.178;4.448;2023-09-19T09:13:05;11.52;;;1.92;;
25948;SDS011;13961;51.178;4.448;2023-09-19T09:15:31;13.48;;;2.45;;
25948;SDS011;13961;51.178;4.448;2023-09-19T09:18:01;11.32;;;2.25;;
25948;SDS011;13961;51.178;4.448;2023-09-19T09:20:29;9.60;;;2.03;;
25948;SDS011;13961;51.178;4.448;2023-09-19T09:22:56;15.38;;;2.47;;
25948;SDS011;13961;51.178;4.448;2023-09-19T09:28:25;11.25;;;2.67;;
25948;SDS011;13961;51.178;4.448;2023-09-19T09:30:56;9.38;;;2.03;;
25948;SDS011;13961;51.178;4.448;2023-09-19T09:33:34;10.25;;;2.00;;
25948;SDS011;13961;51.178;4.448;2023-09-19T09:36:01;12.40;;;1.90;;
25948;SDS011;13961;51.178;4.448;2023-09-19T09:41:13;7.10;;;1.58;;
25948;SDS011;13961;51.178;4.448;2023-09-19T09:43:52;7.07;;;1.70;;
25948;SDS011;13961;51.178;4.448;2023-09-19T09:46:19;14.30;;;1.90;;
25948;SDS011;13961;51.178;4.448;2023-09-19T09:49:07;7.70;;;1.65;;
25948;SDS011;13961;51.178;4.448;2023-09-19T09:51:50;6.75;;;1.73;;
25948;SDS011;13961;51.178;4.448;2023-09-19T09:54:32;12.68;;;1.90;;
25948;SDS011;13961;51.178;4.448;2023-09-19T09:57:02;9.30;;;1.55;;
25948;SDS011;13961;51.178;4.448;2023-09-19T10:02:27;9.07;;;1.55;;
25948;SDS011;13961;51.178;4.448;2023-09-19T10:04:57;9.93;;;1.58;;
25948;SDS011;13961;51.178;4.448;2023-09-19T10:07:41;5.72;;;1.55;;
25948;SDS011;13961;51.178;4.448;2023-09-19T10:10:14;5.65;;;1.50;;
25948;SDS011;13961;51.178;4.448;2023-09-19T10:12:46;7.80;;;1.63;;
25948;SDS011;13961;51.178;4.448;2023-09-19T10:15:14;5.18;;;1.60;;
25948;SDS011;13961;51.178;4.448;2023-09-19T10:17:43;8.45;;;1.80;;
25948;SDS011;13961;51.178;4.448;2023-09-19T10:20:15;7.32;;;1.65;;
25948;SDS011;13961;51.178;4.448;2023-09-19T10:23:02;5.65;;;1.65;;
25948;SDS011;13961;51.178;4.448;2023-09-19T10:25:36;5.22;;;1.42;;
25948;SDS011;13961;51.178;4.448;2023-09-19T10:28:05;8.85;;;1.60;;
25948;SDS011;13961;51.178;4.448;2023-09-19T10:30:36;8.23;;;1.52;;
25948;SDS011;13961;51.178;4.448;2023-09-19T10:33:09;9.95;;;1.38;;
25948;SDS011;13961;51.178;4.448;2023-09-19T10:35:37;7.75;;;1.20;;
25948;SDS011;13961;51.178;4.448;2023-09-19T10:38:07;5.07;;;1.30;;
25948;SDS011;13961;51.178;4.448;2023-09-19T10:40:35;5.82;;;1.50;;
25948;SDS011;13961;51.178;4.448;2023-09-19T10:43:06;5.13;;;1.20;;
25948;SDS011;13961;51.178;4.448;2023-09-19T10:45:33;5.25;;;1.33;;
25948;SDS011;13961;51.178;4.448;2023-09-19T10:48:00;4.50;;;1.13;;
25948;SDS011;13961;51.178;4.448;2023-09-19T10:50:41;5.93;;;1.13;;
25948;SDS011;13961;51.178;4.448;2023-09-19T10:53:11;9.35;;;1.20;;
25948;SDS011;13961;51.178;4.448;2023-09-19T10:55:38;8.55;;;1.65;;
25948;SDS011;13961;51.178;4.448;2023-09-19T10:58:05;9.75;;;1.40;;
25948;SDS011;13961;51.178;4.448;2023-09-19T11:03:22;5.90;;;1.08;;
25948;SDS011;13961;51.178;4.448;2023-09-19T11:11:40;5.85;;;1.30;;
25948;SDS011;13961;51.178;4.448;2023-09-19T11:16:40;5.50;;;0.93;;
25948;SDS011;13961;51.178;4.448;2023-09-19T11:19:48;10.02;;;1.20;;
25948;SDS011;13961;51.178;4.448;2023-09-19T11:30:49;4.28;;;1.08;;
25948;SDS011;13961;51.178;4.448;2023-09-19T11:46:20;3.92;;;1.08;;
25948;SDS011;13961;51.178;4.448;2023-09-19T11:48:49;3.10;;;0.90;;
25948;SDS011;13961;51.178;4.448;2023-09-19T11:51:24;6.40;;;1.38;;
25948;SDS011;13961;51.178;4.448;2023-09-19T11:53:55;7.28;;;1.00;;
25948;SDS011;13961;51.178;4.448;2023-09-19T11:56:25;3.65;;;0.98;;
25948;SDS011;13961;51.178;4.448;2023-09-19T11:58:56;4.47;;;1.00;;
25948;SDS011;13961;51.178;4.448;2023-09-19T12:03:52;3.20;;;1.08;;
25948;SDS011;13961;51.178;4.448;2023-09-19T12:06:20;4.30;;;1.08;;
25948;SDS011;13961;51.178;4.448;2023-09-19T12:08:46;4.65;;;0.88;;
25948;SDS011;13961;51.178;4.448;2023-09-19T12:11:14;3.78;;;0.90;;
25948;SDS011;13961;51.178;4.448;2023-09-19T12:13:44;6.93;;;1.00;;
25948;SDS011;13961;51.178;4.448;2023-09-19T12:16:20;2.90;;;1.00;;
25948;SDS011;13961;51.178;4.448;2023-09-19T12:18:49;6.18;;;0.85;;
25948;SDS011;13961;51.178;4.448;2023-09-19T12:21:28;3.45;;;0.88;;
25948;SDS011;13961;51.178;4.448;2023-09-19T12:24:05;2.88;;;0.70;;
25948;SDS011;13961;51.178;4.448;2023-09-19T12:26:42;2.35;;;0.80;;
25948;SDS011;13961;51.178;4.448;2023-09-19T12:29:18;1.73;;;0.63;;
25948;SDS011;13961;51.178;4.448;2023-09-19T12:34:22;3.75;;;1.02;;
25948;SDS011;13961;51.178;4.448;2023-09-19T12:37:03;2.45;;;0.90;;
25948;SDS011;13961;51.178;4.448;2023-09-19T12:39:31;7.03;;;1.05;;
25948;SDS011;13961;51.178;4.448;2023-09-19T12:41:56;2.72;;;1.00;;
25948;SDS011;13961;51.178;4.448;2023-09-19T12:44:23;4.63;;;1.15;;
25948;SDS011;13961;51.178;4.448;2023-09-19T12:46:52;4.38;;;1.20;;
25948;SDS011;13961;51.178;4.448;2023-09-19T12:49:19;3.33;;;1.10;;
25948;SDS011;13961;51.178;4.448;2023-09-19T12:51:48;5.00;;;1.10;;
25948;SDS011;13961;51.178;4.448;2023-09-19T12:54:19;3.08;;;1.10;;
25948;SDS011;13961;51.178;4.448;2023-09-19T12:56:48;5.65;;;1.00;;
25948;SDS011;13961;51.178;4.448;2023-09-19T12:59:15;6.65;;;1.33;;
25948;SDS011;13961;51.178;4.448;2023-09-19T13:01:41;3.60;;;0.88;;
25948;SDS011;13961;51.178;4.448;2023-09-19T13:04:19;3.25;;;0.90;;
25948;SDS011;13961;51.178;4.448;2023-09-19T13:06:53;5.05;;;1.10;;
25948;SDS011;13961;51.178;4.448;2023-09-19T13:09:20;4.55;;;1.10;;
25948;SDS011;13961;51.178;4.448;2023-09-19T13:11:53;5.30;;;1.08;;
25948;SDS011;13961;51.178;4.448;2023-09-19T13:14:28;4.10;;;0.95;;
25948;SDS011;13961;51.178;4.448;2023-09-19T13:17:06;3.75;;;1.10;;
25948;SDS011;13961;51.178;4.448;2023-09-19T13:25:13;13.07;;;2.05;;
25948;SDS011;13961;51.178;4.448;2023-09-19T13:27:43;6.32;;;1.25;;
25948;SDS011;13961;51.178;4.448;2023-09-19T13:30:11;6.45;;;1.38;;
25948;SDS011;13961;51.178;4.448;2023-09-19T13:32:37;5.10;;;1.23;;
25948;SDS011;13961;51.178;4.448;2023-09-19T13:35:05;7.82;;;1.10;;
25948;SDS011;13961;51.178;4.448;2023-09-19T13:37:33;6.00;;;1.38;;
25948;SDS011;13961;51.178;4.448;2023-09-19T13:40:05;4.72;;;1.27;;
25948;SDS011;13961;51.178;4.448;2023-09-19T13:42:33;3.42;;;1.05;;
25948;SDS011;13961;51.178;4.448;2023-09-19T13:44:59;6.10;;;1.10;;
25948;SDS011;13961;51.178;4.448;2023-09-19T13:47:25;5.82;;;1.20;;
25948;SDS011;13961;51.178;4.448;2023-09-19T13:49:52;4.72;;;1.10;;
25948;SDS011;13961;51.178;4.448;2023-09-19T13:52:21;5.47;;;1.40;;
25948;SDS011;13961;51.178;4.448;2023-09-19T13:54:48;3.75;;;1.17;;
25948;SDS011;13961;51.178;4.448;2023-09-19T13:57:15;4.57;;;1.30;;
25948;SDS011;13961;51.178;4.448;2023-09-19T13:59:41;5.47;;;1.23;;
25948;SDS011;13961;51.178;4.448;2023-09-19T14:02:07;4.53;;;1.38;;
25948;SDS011;13961;51.178;4.448;2023-09-19T14:04:33;5.32;;;1.25;;
25948;SDS011;13961;51.178;4.448;2023-09-19T14:07:01;3.30;;;1.33;;
25948;SDS011;13961;51.178;4.448;2023-09-19T14:09:29;7.22;;;1.52;;
25948;SDS011;13961;51.178;4.448;2023-09-19T14:11:55;4.07;;;1.20;;
25948;SDS011;13961;51.178;4.448;2023-09-19T14:14:22;5.45;;;1.63;;
25948;SDS011;13961;51.178;4.448;2023-09-19T14:16:47;5.50;;;1.63;;
25948;SDS011;13961;51.178;4.448;2023-09-19T14:19:13;4.05;;;1.33;;
25948;SDS011;13961;51.178;4.448;2023-09-19T14:21:41;5.72;;;1.20;;
25948;SDS011;13961;51.178;4.448;2023-09-19T14:24:07;4.28;;;1.40;;
25948;SDS011;13961;51.178;4.448;2023-09-19T14:26:38;7.03;;;1.40;;
25948;SDS011;13961;51.178;4.448;2023-09-19T14:29:04;5.82;;;1.52;;
25948;SDS011;13961;51.178;4.448;2023-09-19T14:31:32;4.75;;;1.38;;
25948;SDS011;13961;51.178;4.448;2023-09-19T14:33:59;6.25;;;1.23;;
25948;SDS011;13961;51.178;4.448;2023-09-19T14:36:25;9.52;;;1.40;;
25948;SDS011;13961;51.178;4.448;2023-09-19T14:38:54;6.03;;;1.38;;
25948;SDS011;13961;51.178;4.448;2023-09-19T14:41:21;6.25;;;1.38;;
25948;SDS011;13961;51.178;4.448;2023-09-19T14:43:48;4.28;;;1.33;;
25948;SDS011;13961;51.178;4.448;2023-09-19T14:46:14;5.35;;;1.42;;
25948;SDS011;13961;51.178;4.448;2023-09-19T14:48:41;4.38;;;1.48;;
25948;SDS011;13961;51.178;4.448;2023-09-19T14:51:08;4.13;;;1.40;;
25948;SDS011;13961;51.178;4.448;2023-09-19T14:53:34;3.75;;;1.52;;
25948;SDS011;13961;51.178;4.448;2023-09-19T14:56:02;5.20;;;1.70;;
25948;SDS011;13961;51.178;4.448;2023-09-19T14:58:33;4.28;;;1.50;;
25948;SDS011;13961;51.178;4.448;2023-09-19T15:01:03;6.65;;;1.60;;
25948;SDS011;13961;51.178;4.448;2023-09-19T15:03:31;3.58;;;1.58;;
25948;SDS011;13961;51.178;4.448;2023-09-19T15:06:01;4.90;;;1.60;;
25948;SDS011;13961;51.178;4.448;2023-09-19T15:08:29;4.22;;;1.60;;
25948;SDS011;13961;51.178;4.448;2023-09-19T15:11:00;8.27;;;1.52;;
25948;SDS011;13961;51.178;4.448;2023-09-19T15:13:30;10.32;;;1.65;;
25948;SDS011;13961;51.178;4.448;2023-09-19T15:16:03;7.57;;;1.63;;
25948;SDS011;13961;51.178;4.448;2023-09-19T15:18:35;3.90;;;1.40;;
25948;SDS011;13961;51.178;4.448;2023-09-19T15:21:08;7.50;;;2.08;;
25948;SDS011;13961;51.178;4.448;2023-09-19T15:23:35;7.50;;;1.70;;
25948;SDS011;13961;51.178;4.448;2023-09-19T15:26:01;6.57;;;1.95;;
25948;SDS011;13961;51.178;4.448;2023-09-19T15:28:31;4.40;;;1.30;;
25948;SDS011;13961;51.178;4.448;2023-09-19T15:31:08;2.50;;;1.30;;
25948;SDS011;13961;51.178;4.448;2023-09-19T15:33:35;5.97;;;1.55;;
25948;SDS011;13961;51.178;4.448;2023-09-19T15:36:12;6.10;;;1.83;;
25948;SDS011;13961;51.178;4.448;2023-09-19T15:41:24;6.15;;;2.22;;
25948;SDS011;13961;51.178;4.448;2023-09-19T15:43:55;5.67;;;1.90;;
25948;SDS011;13961;51.178;4.448;2023-09-19T15:46:22;8.02;;;2.00;;
25948;SDS011;13961;51.178;4.448;2023-09-19T15:48:48;5.32;;;2.05;;
25948;SDS011;13961;51.178;4.448;2023-09-19T15:51:15;6.10;;;2.00;;
25948;SDS011;13961;51.178;4.448;2023-09-19T15:53:47;6.35;;;1.70;;
25948;SDS011;13961;51.178;4.448;2023-09-19T15:56:15;7.50;;;1.63;;
25948;SDS011;13961;51.178;4.448;2023-09-19T15:58:46;5.65;;;1.45;;
25948;SDS011;13961;51.178;4.448;2023-09-19T16:01:12;6.03;;;1.63;;